createdAt,value
2018-04-30T00:00:46.521Z,99.99
2018-04-30T00:01:46.321Z,99.99
2018-04-30T00:02:46.433Z,99.99
2018-04-30T00:03:46.277Z,99.99
2018-04-30T00:04:46.345Z,99.99
2018-04-30T00:05:46.230Z,99.99
2018-04-30T00:06:46.359Z,99.99
2018-04-30T00:07:46.184Z,99.99
2018-04-30T00:08:46.270Z,99.99
2018-04-30T00:09:46.141Z,99.99
2018-04-30T00:10:46.285Z,99.99
2018-04-30T00:11:46.094Z,99.99
2018-04-30T00:12:46.197Z,99.99
2018-04-30T00:13:46.050Z,99.99
2018-04-30T00:14:46.215Z,99.99
2018-04-30T00:15:46.004Z,99.99
2018-04-30T00:16:46.120Z,99.99
2018-04-30T00:17:45.953Z,99.99
2018-04-30T00:18:46.138Z,99.99
2018-04-30T00:19:45.918Z,99.99
2018-04-30T00:20:46.053Z,99.99
2018-04-30T00:21:45.869Z,99.99
2018-04-30T00:22:45.952Z,99.99
2018-04-30T00:23:45.827Z,99.99
2018-04-30T00:24:45.972Z,99.99
2018-04-30T00:25:45.778Z,99.99
2018-04-30T00:26:45.885Z,99.99
2018-04-30T00:27:45.733Z,99.99
2018-04-30T00:28:45.900Z,99.99
2018-04-30T00:29:45.686Z,99.99
2018-04-30T00:30:45.812Z,99.99
2018-04-30T00:31:45.644Z,99.99
2018-04-30T00:32:45.824Z,99.99
2018-04-30T00:33:45.599Z,99.99
2018-04-30T00:34:45.738Z,99.99
2018-04-30T00:35:45.553Z,99.99
2018-04-30T00:36:45.649Z,99.99
2018-04-30T00:37:45.507Z,99.99
2018-04-30T00:38:45.662Z,99.99
2018-04-30T00:39:45.462Z,99.99
2018-04-30T00:40:45.575Z,99.99
2018-04-30T00:41:45.417Z,99.99
2018-04-30T00:42:45.589Z,99.99
2018-04-30T00:43:45.371Z,99.99
2018-04-30T00:44:45.501Z,99.99
2018-04-30T00:45:45.326Z,99.99
2018-04-30T00:46:45.515Z,99.99
2018-04-30T00:47:45.289Z,99.99
2018-04-30T00:48:45.324Z,99.99
2018-04-30T00:49:45.237Z,99.99
2018-04-30T00:50:45.338Z,99.99
2018-04-30T00:51:45.192Z,99.99
2018-04-30T00:52:45.249Z,99.99
2018-04-30T00:53:45.148Z,99.99
2018-04-30T00:54:46.191Z,99.99
2018-04-30T00:55:45.106Z,99.99
2018-04-30T00:56:45.175Z,99.99
2018-04-30T00:57:45.061Z,99.99
2018-04-30T00:58:45.086Z,99.99
2018-04-30T00:59:45.014Z,99.99
2018-04-30T01:00:45.101Z,99.99
2018-04-30T01:01:44.977Z,99.99
2018-04-30T01:02:45.013Z,99.99
2018-04-30T01:03:44.922Z,99.99
2018-04-30T01:04:45.029Z,99.99
2018-04-30T01:05:44.881Z,99.99
2018-04-30T01:06:44.940Z,99.99
2018-04-30T01:07:44.841Z,99.99
2018-04-30T01:08:44.848Z,99.99
2018-04-30T01:09:44.787Z,99.99
2018-04-30T01:10:44.863Z,99.99
2018-04-30T01:11:44.744Z,99.99
2018-04-30T01:12:44.775Z,99.99
2018-04-30T01:13:44.698Z,99.99
2018-04-30T01:14:44.792Z,99.99
2018-04-30T01:15:44.657Z,99.99
2018-04-30T01:16:44.700Z,99.99
2018-04-30T01:17:44.609Z,99.99
2018-04-30T01:18:44.716Z,99.99
2018-04-30T01:19:44.563Z,99.99
2018-04-30T01:20:44.626Z,99.99
2018-04-30T01:21:44.518Z,99.99
2018-04-30T01:22:44.642Z,99.99
2018-04-30T01:23:44.474Z,99.99
2018-04-30T01:24:44.551Z,99.99
2018-04-30T01:25:44.432Z,99.99
2018-04-30T01:26:44.464Z,99.99
2018-04-30T01:27:44.392Z,99.99
2018-04-30T01:28:44.477Z,99.99
2018-04-30T01:29:44.339Z,99.99
2018-04-30T01:30:44.392Z,99.99
2018-04-30T01:31:44.296Z,99.99
2018-04-30T01:32:44.404Z,99.99
2018-04-30T01:33:44.248Z,99.99
2018-04-30T01:34:44.316Z,99.99
2018-04-30T01:35:44.204Z,99.99
2018-04-30T01:36:44.332Z,99.99
2018-04-30T01:37:44.158Z,99.99
2018-04-30T01:38:44.243Z,99.99
2018-04-30T01:39:44.115Z,99.99
2018-04-30T01:40:44.153Z,99.99
2018-04-30T01:41:44.076Z,99.99
2018-04-30T01:42:44.169Z,99.99
2018-04-30T01:43:44.021Z,99.99
2018-04-30T01:44:44.080Z,99.99
2018-04-30T01:45:43.983Z,99.99
2018-04-30T01:46:44.091Z,99.99
2018-04-30T01:47:43.938Z,99.99
2018-04-30T01:48:44.003Z,99.99
2018-04-30T01:49:43.888Z,99.99
2018-04-30T01:50:44.022Z,99.99
2018-04-30T01:51:43.844Z,99.99
2018-04-30T01:52:43.933Z,99.99
2018-04-30T01:53:43.800Z,99.99
2018-04-30T01:54:43.948Z,99.99
2018-04-30T01:55:43.753Z,99.99
2018-04-30T01:56:43.860Z,99.99
2018-04-30T01:57:43.708Z,99.99
2018-04-30T01:58:43.768Z,99.99
2018-04-30T01:59:43.667Z,99.99
2018-04-30T02:00:43.782Z,99.99
2018-04-30T02:01:43.633Z,99.99
2018-04-30T02:02:43.693Z,99.99
2018-04-30T02:03:43.574Z,99.99
2018-04-30T02:04:43.709Z,99.99
2018-04-30T02:05:43.528Z,99.99
2018-04-30T02:06:43.620Z,99.99
2018-04-30T02:07:43.483Z,99.99
2018-04-30T02:08:43.634Z,99.99
2018-04-30T02:09:43.439Z,99.99
2018-04-30T02:10:43.547Z,99.99
2018-04-30T02:11:43.392Z,99.99
2018-04-30T02:12:43.457Z,99.99
2018-04-30T02:13:43.349Z,99.99
2018-04-30T02:14:43.469Z,99.99
2018-04-30T02:15:43.304Z,99.99
2018-04-30T02:16:43.382Z,99.99
2018-04-30T02:17:43.256Z,99.99
2018-04-30T02:18:43.396Z,99.99
2018-04-30T02:19:43.214Z,99.99
2018-04-30T02:20:43.306Z,99.99
2018-04-30T02:21:43.167Z,99.99
2018-04-30T02:22:43.324Z,99.99
2018-04-30T02:23:43.121Z,99.99
2018-04-30T02:24:43.236Z,99.99
2018-04-30T02:25:43.074Z,99.99
2018-04-30T02:26:43.247Z,99.99
2018-04-30T02:27:43.031Z,99.99
2018-04-30T02:28:43.158Z,99.99
2018-04-30T02:29:42.989Z,99.99
2018-04-30T02:30:43.071Z,99.99
2018-04-30T02:31:42.941Z,99.99
2018-04-30T02:32:43.085Z,99.99
2018-04-30T02:33:42.967Z,99.99
2018-04-30T02:34:42.996Z,99.99
2018-04-30T02:35:42.850Z,99.99
2018-04-30T02:36:43.011Z,99.99
2018-04-30T02:37:42.804Z,99.99
2018-04-30T02:38:42.819Z,99.99
2018-04-30T02:39:42.761Z,99.99
2018-04-30T02:40:42.940Z,99.99
2018-04-30T02:41:42.715Z,99.99
2018-04-30T02:42:42.849Z,99.99
2018-04-30T02:43:42.670Z,99.99
2018-04-30T02:44:42.759Z,99.99
2018-04-30T02:45:42.625Z,99.99
2018-04-30T02:46:42.772Z,99.99
2018-04-30T02:47:42.582Z,99.99
2018-04-30T02:48:42.689Z,99.99
2018-04-30T02:49:42.533Z,99.99
2018-04-30T02:50:42.700Z,99.99
2018-04-30T02:51:42.489Z,99.99
2018-04-30T02:52:42.610Z,99.99
2018-04-30T02:53:42.445Z,99.99
2018-04-30T02:54:42.624Z,99.99
2018-04-30T02:55:42.402Z,99.99
2018-04-30T02:56:42.536Z,99.99
2018-04-30T02:57:42.352Z,99.99
2018-04-30T02:58:42.551Z,99.99
2018-04-30T02:59:42.309Z,99.99
2018-04-30T03:00:42.359Z,99.99
2018-04-30T03:01:42.264Z,99.99
2018-04-30T03:02:42.272Z,99.99
2018-04-30T03:03:42.216Z,99.99
2018-04-30T03:04:42.286Z,99.99
2018-04-30T03:05:42.170Z,99.99
2018-04-30T03:06:42.198Z,99.99
2018-04-30T03:07:42.124Z,99.99
2018-04-30T03:08:42.211Z,99.99
2018-04-30T03:09:42.114Z,99.99
2018-04-30T03:10:42.122Z,99.99
2018-04-30T03:11:42.035Z,99.99
2018-04-30T03:12:42.137Z,99.99
2018-04-30T03:13:41.983Z,99.99
2018-04-30T03:14:42.049Z,99.99
2018-04-30T03:15:41.945Z,99.99
2018-04-30T03:16:41.960Z,99.99
2018-04-30T03:17:41.893Z,99.99
2018-04-30T03:18:41.982Z,99.99
2018-04-30T03:19:41.859Z,99.99
2018-04-30T03:20:41.888Z,99.99
2018-04-30T03:21:41.803Z,99.99
2018-04-30T03:22:41.902Z,99.99
2018-04-30T03:23:41.759Z,99.99
2018-04-30T03:24:41.812Z,99.99
2018-04-30T03:25:41.712Z,99.99
2018-04-30T03:26:41.825Z,99.99
2018-04-30T03:27:41.666Z,99.99
2018-04-30T03:28:41.705Z,99.99
2018-04-30T03:29:41.623Z,99.99
2018-04-30T03:30:41.650Z,99.99
2018-04-30T03:31:41.580Z,99.99
2018-04-30T03:32:41.670Z,99.99
2018-04-30T03:33:41.532Z,99.99
2018-04-30T03:34:41.573Z,99.99
2018-04-30T03:35:41.480Z,99.99
2018-04-30T03:36:41.590Z,99.99
2018-04-30T03:37:41.444Z,99.99
2018-04-30T03:38:41.497Z,99.99
2018-04-30T03:39:41.390Z,99.99
2018-04-30T03:40:41.515Z,99.99
2018-04-30T03:41:41.343Z,99.99
2018-04-30T03:42:41.428Z,99.99
2018-04-30T03:43:41.299Z,99.99
2018-04-30T03:44:41.337Z,99.99
2018-04-30T03:45:41.251Z,99.99
2018-04-30T03:46:41.349Z,99.99
2018-04-30T03:47:41.206Z,99.99
2018-04-30T03:48:41.261Z,99.99
2018-04-30T03:49:41.239Z,99.99
2018-04-30T03:50:41.277Z,99.99
2018-04-30T03:51:41.115Z,99.99
2018-04-30T03:52:41.187Z,99.99
2018-04-30T03:53:41.072Z,99.99
2018-04-30T03:54:41.203Z,99.99
2018-04-30T03:55:41.026Z,99.99
2018-04-30T03:56:41.114Z,99.99
2018-04-30T03:57:40.977Z,99.99
2018-04-30T03:58:41.030Z,99.99
2018-04-30T03:59:40.932Z,99.99
2018-04-30T04:00:41.041Z,99.99
2018-04-30T04:01:40.890Z,99.99
2018-04-30T04:02:40.951Z,99.99
2018-04-30T04:03:40.841Z,99.99
2018-04-30T04:04:40.966Z,99.99
2018-04-30T04:05:40.793Z,99.99
2018-04-30T04:06:40.877Z,99.99
2018-04-30T04:07:40.748Z,99.99
2018-04-30T04:08:40.889Z,99.99
2018-04-30T04:09:40.707Z,99.99
2018-04-30T04:10:40.801Z,99.99
2018-04-30T04:11:40.657Z,99.99
2018-04-30T04:12:40.721Z,99.99
2018-04-30T04:13:40.612Z,99.99
2018-04-30T04:14:40.727Z,99.99
2018-04-30T04:15:40.568Z,99.99
2018-04-30T04:16:40.641Z,99.99
2018-04-30T04:17:40.520Z,99.99
2018-04-30T04:18:40.659Z,99.99
2018-04-30T04:19:40.479Z,99.99
2018-04-30T04:20:40.566Z,99.99
2018-04-30T04:21:40.430Z,99.99
2018-04-30T04:22:40.576Z,99.99
2018-04-30T04:23:40.383Z,99.99
2018-04-30T04:24:40.493Z,99.99
2018-04-30T04:25:40.347Z,99.99
2018-04-30T04:26:40.403Z,99.99
2018-04-30T04:27:40.290Z,99.99
2018-04-30T04:28:40.420Z,99.99
2018-04-30T04:29:40.245Z,99.99
2018-04-30T04:30:40.331Z,99.99
2018-04-30T04:31:40.198Z,99.99
2018-04-30T04:32:40.345Z,99.99
2018-04-30T04:33:40.163Z,99.99
2018-04-30T04:34:40.153Z,99.99
2018-04-30T04:35:40.108Z,99.99
2018-04-30T04:36:40.268Z,99.99
2018-04-30T04:37:40.061Z,99.99
2018-04-30T04:38:40.180Z,99.99
2018-04-30T04:39:40.019Z,99.99
2018-04-30T04:40:40.092Z,99.99
2018-04-30T04:41:39.985Z,99.99
2018-04-30T04:42:40.107Z,99.99
2018-04-30T04:43:39.922Z,99.99
2018-04-30T04:44:40.016Z,99.99
2018-04-30T04:45:39.880Z,99.99
2018-04-30T04:46:40.037Z,99.99
2018-04-30T04:47:39.834Z,99.99
2018-04-30T04:48:39.946Z,99.99
2018-04-30T04:49:39.785Z,99.99
2018-04-30T04:50:39.958Z,99.99
2018-04-30T04:51:39.742Z,99.99
2018-04-30T04:52:39.868Z,99.99
2018-04-30T04:53:39.692Z,99.99
2018-04-30T04:54:39.782Z,99.99
2018-04-30T04:55:39.649Z,99.99
2018-04-30T04:56:39.796Z,99.99
2018-04-30T04:57:39.600Z,99.99
2018-04-30T04:58:39.706Z,99.99
2018-04-30T04:59:39.554Z,99.99
2018-04-30T05:00:39.722Z,99.99
2018-04-30T05:01:39.506Z,99.99
2018-04-30T05:02:39.631Z,99.99
2018-04-30T05:03:39.459Z,99.99
2018-04-30T05:04:39.646Z,99.99
2018-04-30T05:05:39.414Z,99.99
2018-04-30T05:06:39.557Z,99.99
2018-04-30T05:07:39.368Z,99.99
2018-04-30T05:08:39.468Z,99.99
2018-04-30T05:09:39.319Z,99.99
2018-04-30T05:10:39.484Z,99.99
2018-04-30T05:11:39.263Z,99.99
2018-04-30T05:12:39.296Z,99.99
2018-04-30T05:13:39.223Z,99.99
2018-04-30T05:14:39.308Z,99.99
2018-04-30T05:15:39.179Z,99.99
2018-04-30T05:16:39.219Z,99.99
2018-04-30T05:17:39.133Z,99.99
2018-04-30T05:18:39.235Z,99.99
2018-04-30T05:19:39.085Z,99.99
2018-04-30T05:20:39.143Z,99.99
2018-04-30T05:21:39.040Z,99.99
2018-04-30T05:22:39.058Z,99.99
2018-04-30T05:23:38.990Z,99.99
2018-04-30T05:24:39.070Z,99.99
2018-04-30T05:25:38.942Z,99.99
2018-04-30T05:26:38.984Z,99.99
2018-04-30T05:27:38.897Z,99.99
2018-04-30T05:28:38.995Z,99.99
2018-04-30T05:29:38.850Z,99.99
2018-04-30T05:30:38.906Z,99.99
2018-04-30T05:31:38.806Z,99.99
2018-04-30T05:32:38.825Z,99.99
2018-04-30T05:33:38.758Z,99.99
2018-04-30T05:34:38.833Z,99.99
2018-04-30T05:35:38.709Z,99.99
2018-04-30T05:36:38.746Z,99.99
2018-04-30T05:37:38.663Z,99.99
2018-04-30T05:38:38.761Z,99.99
2018-04-30T05:39:38.614Z,99.99
2018-04-30T05:40:38.670Z,99.99
2018-04-30T05:41:38.575Z,99.99
2018-04-30T05:42:38.685Z,99.99
2018-04-30T05:43:38.524Z,99.99
2018-04-30T05:44:38.598Z,99.99
2018-04-30T05:45:38.475Z,99.99
2018-04-30T05:46:38.505Z,99.99
2018-04-30T05:47:38.427Z,99.99
2018-04-30T05:48:38.521Z,99.99
2018-04-30T05:49:38.381Z,99.99
2018-04-30T05:50:38.435Z,99.99
2018-04-30T05:51:38.335Z,99.99
2018-04-30T05:52:38.454Z,99.99
2018-04-30T05:53:38.296Z,99.99
2018-04-30T05:54:38.372Z,99.99
2018-04-30T05:55:38.240Z,99.99
2018-04-30T05:56:38.270Z,99.99
2018-04-30T05:57:38.192Z,99.99
2018-04-30T05:58:38.284Z,99.99
2018-04-30T05:59:38.145Z,99.99
2018-04-30T06:00:38.231Z,99.99
2018-04-30T06:01:38.099Z,99.99
2018-04-30T06:02:38.210Z,99.99
2018-04-30T06:03:38.056Z,99.99
2018-04-30T06:04:38.121Z,99.99
2018-04-30T06:05:38.005Z,99.99
2018-04-30T06:06:38.137Z,99.99
2018-04-30T06:07:37.958Z,99.99
2018-04-30T06:08:38.048Z,99.99
2018-04-30T06:09:37.912Z,99.99
2018-04-30T06:10:37.963Z,99.99
2018-04-30T06:11:37.866Z,99.99
2018-04-30T06:12:37.974Z,99.99
2018-04-30T06:13:37.822Z,99.99
2018-04-30T06:14:37.886Z,99.99
2018-04-30T06:15:37.770Z,99.99
2018-04-30T06:16:37.900Z,99.99
2018-04-30T06:17:37.736Z,99.99
2018-04-30T06:18:37.810Z,99.99
2018-04-30T06:19:37.678Z,99.99
2018-04-30T06:20:37.825Z,99.99
2018-04-30T06:21:37.630Z,99.99
2018-04-30T06:22:37.737Z,99.99
2018-04-30T06:23:37.582Z,99.99
2018-04-30T06:24:37.647Z,99.99
2018-04-30T06:25:37.536Z,99.99
2018-04-30T06:26:37.672Z,99.99
2018-04-30T06:27:37.491Z,99.99
2018-04-30T06:28:37.573Z,99.99
2018-04-30T06:29:37.443Z,99.99
2018-04-30T06:30:37.588Z,99.99
2018-04-30T06:31:37.393Z,99.99
2018-04-30T06:32:37.496Z,99.99
2018-04-30T06:33:37.348Z,99.99
2018-04-30T06:34:37.403Z,99.99
2018-04-30T06:35:37.306Z,99.99
2018-04-30T06:36:37.425Z,99.99
2018-04-30T06:37:37.254Z,99.99
2018-04-30T06:38:37.340Z,99.99
2018-04-30T06:39:37.209Z,99.99
2018-04-30T06:40:37.353Z,99.99
2018-04-30T06:41:37.161Z,99.99
2018-04-30T06:42:37.260Z,99.99
2018-04-30T06:43:37.115Z,99.99
2018-04-30T06:44:37.277Z,99.99
2018-04-30T06:45:37.068Z,99.99
2018-04-30T06:46:37.189Z,99.99
2018-04-30T06:47:37.055Z,99.99
2018-04-30T06:48:37.041Z,99.99
2018-04-30T06:49:36.977Z,99.99
2018-04-30T06:50:37.115Z,99.99
2018-04-30T06:51:36.930Z,99.99
2018-04-30T06:52:37.028Z,99.99
2018-04-30T06:53:36.882Z,99.99
2018-04-30T06:54:36.955Z,99.99
2018-04-30T06:55:36.835Z,99.99
2018-04-30T06:56:36.957Z,99.99
2018-04-30T06:57:36.787Z,99.99
2018-04-30T06:58:36.965Z,99.99
2018-04-30T06:59:36.740Z,99.99
2018-04-30T07:00:36.879Z,99.99
2018-04-30T07:01:36.694Z,99.99
2018-04-30T07:02:36.790Z,99.99
2018-04-30T07:03:36.647Z,99.99
2018-04-30T07:04:36.709Z,99.99
2018-04-30T07:05:36.614Z,99.99
2018-04-30T07:06:36.715Z,99.99
2018-04-30T07:07:36.553Z,99.99
2018-04-30T07:08:36.730Z,99.99
2018-04-30T07:09:36.696Z,99.99
2018-04-30T07:10:36.640Z,99.99
2018-04-30T07:11:36.462Z,99.99
2018-04-30T07:12:36.551Z,99.99
2018-04-30T07:13:36.414Z,99.99
2018-04-30T07:14:36.580Z,99.99
2018-04-30T07:15:36.366Z,99.99
2018-04-30T07:16:36.481Z,99.99
2018-04-30T07:17:36.324Z,99.99
2018-04-30T07:18:36.492Z,99.99
2018-04-30T07:19:36.276Z,99.99
2018-04-30T07:20:36.404Z,99.99
2018-04-30T07:21:36.231Z,99.99
2018-04-30T07:22:36.417Z,99.99
2018-04-30T07:23:36.183Z,99.99
2018-04-30T07:24:36.225Z,99.99
2018-04-30T07:25:36.137Z,99.99
2018-04-30T07:26:36.142Z,99.99
2018-04-30T07:27:36.110Z,99.99
2018-04-30T07:28:36.156Z,99.99
2018-04-30T07:29:36.047Z,99.99
2018-04-30T07:30:36.069Z,99.99
2018-04-30T07:31:35.998Z,99.99
2018-04-30T07:32:36.080Z,99.99
2018-04-30T07:33:35.950Z,99.99
2018-04-30T07:34:35.993Z,99.99
2018-04-30T07:35:35.904Z,99.99
2018-04-30T07:36:36.004Z,99.99
2018-04-30T07:37:35.858Z,99.99
2018-04-30T07:38:35.918Z,99.99
2018-04-30T07:39:35.811Z,99.99
2018-04-30T07:40:35.829Z,99.99
2018-04-30T07:41:35.763Z,99.99
2018-04-30T07:42:35.851Z,99.99
2018-04-30T07:43:35.720Z,99.99
2018-04-30T07:44:35.755Z,99.99
2018-04-30T07:45:35.673Z,99.99
2018-04-30T07:46:35.768Z,99.99
2018-04-30T07:47:35.626Z,99.99
2018-04-30T07:48:35.678Z,99.99
2018-04-30T07:49:35.578Z,99.99
2018-04-30T07:50:35.696Z,99.99
2018-04-30T07:51:35.539Z,99.99
2018-04-30T07:52:35.608Z,99.99
2018-04-30T07:53:35.484Z,99.99
2018-04-30T07:54:35.523Z,99.99
2018-04-30T07:55:35.445Z,99.99
2018-04-30T07:56:35.528Z,99.99
2018-04-30T07:57:35.389Z,99.99
2018-04-30T07:58:35.440Z,99.99
2018-04-30T07:59:35.346Z,99.99
2018-04-30T08:00:35.455Z,99.99
2018-04-30T08:01:35.305Z,99.99
2018-04-30T08:02:35.367Z,99.99
2018-04-30T08:03:35.253Z,99.99
2018-04-30T08:04:35.380Z,99.99
2018-04-30T08:05:35.209Z,99.99
2018-04-30T08:06:35.296Z,99.99
2018-04-30T08:07:35.168Z,99.99
2018-04-30T08:08:35.203Z,99.99
2018-04-30T08:09:35.113Z,99.99
2018-04-30T08:10:35.254Z,99.99
2018-04-30T08:11:35.066Z,99.99
2018-04-30T08:12:35.129Z,99.99
2018-04-30T08:13:35.028Z,99.99
2018-04-30T08:14:35.146Z,99.99
2018-04-30T08:15:34.993Z,99.99
2018-04-30T08:16:35.056Z,99.99
2018-04-30T08:17:34.931Z,99.99
2018-04-30T08:18:35.072Z,99.99
2018-04-30T08:19:34.887Z,99.99
2018-04-30T08:20:34.983Z,99.99
2018-04-30T08:21:34.892Z,99.99
2018-04-30T08:22:34.891Z,99.71
2018-04-30T08:23:34.790Z,99.99
2018-04-30T08:24:34.912Z,99.99
2018-04-30T08:25:34.748Z,99.99
2018-04-30T08:26:34.820Z,99.99
2018-04-30T08:27:34.701Z,99.99
2018-04-30T08:28:34.832Z,99.99
2018-04-30T08:29:34.669Z,98.99
2018-04-30T08:30:34.745Z,99.99
2018-04-30T08:31:34.608Z,99.99
2018-04-30T08:32:34.758Z,98.90
2018-04-30T08:33:34.561Z,99.76
2018-04-30T08:34:34.670Z,99.23
2018-04-30T08:35:34.516Z,99.43
2018-04-30T08:36:34.590Z,99.76
2018-04-30T08:37:34.470Z,99.28
2018-04-30T08:38:34.592Z,99.76
2018-04-30T08:39:34.425Z,98.61
2018-04-30T08:40:34.509Z,98.61
2018-04-30T08:41:34.377Z,99.28
2018-04-30T08:42:34.522Z,99.66
2018-04-30T08:43:34.331Z,99.09
2018-04-30T08:44:34.434Z,98.61
2018-04-30T08:45:34.286Z,99.19
2018-04-30T08:46:34.273Z,99.85
2018-04-30T08:47:34.234Z,99.99
2018-04-30T08:48:34.286Z,98.61
2018-04-30T08:49:34.193Z,99.09
2018-04-30T08:50:34.195Z,98.80
2018-04-30T08:51:34.146Z,98.42
2018-04-30T08:52:34.127Z,95.75
2018-04-30T08:53:34.112Z,96.13
2018-04-30T08:54:34.076Z,96.13
2018-04-30T08:55:34.127Z,96.22
2018-04-30T08:56:34.033Z,95.56
2018-04-30T08:57:34.036Z,96.13
2018-04-30T08:58:34.005Z,96.03
2018-04-30T08:59:34.047Z,95.75
2018-04-30T09:00:34.023Z,95.65
2018-04-30T09:01:33.957Z,94.98
2018-04-30T09:02:33.894Z,94.98
2018-04-30T09:03:33.972Z,93.93
2018-04-30T09:04:33.849Z,94.98
2018-04-30T09:05:33.947Z,95.17
2018-04-30T09:06:33.805Z,94.22
2018-04-30T09:07:33.895Z,94.02
2018-04-30T09:08:33.757Z,94.60
2018-04-30T09:09:33.876Z,92.21
2018-04-30T09:10:33.711Z,92.21
2018-04-30T09:11:33.712Z,91.06
2018-04-30T09:12:33.667Z,92.02
2018-04-30T09:13:33.728Z,91.35
2018-04-30T09:14:33.619Z,90.78
2018-04-30T09:15:33.637Z,91.93
2018-04-30T09:16:33.572Z,92.21
2018-04-30T09:17:33.647Z,90.88
2018-04-30T09:18:33.527Z,91.49
2018-04-30T09:19:33.555Z,91.97
2018-04-30T09:20:33.485Z,92.07
2018-04-30T09:21:33.570Z,90.59
2018-04-30T09:22:33.436Z,88.91
2018-04-30T09:23:33.480Z,88.91
2018-04-30T09:24:33.387Z,88.72
2018-04-30T09:25:33.391Z,88.72
2018-04-30T09:26:33.352Z,88.15
2018-04-30T09:27:33.403Z,88.15
2018-04-30T09:28:33.298Z,87.66
2018-04-30T09:29:33.315Z,89.20
2018-04-30T09:30:33.253Z,87.76
2018-04-30T09:31:33.327Z,87.76
2018-04-30T09:32:33.206Z,89.67
2018-04-30T09:33:33.237Z,89.24
2018-04-30T09:34:33.178Z,89.15
2018-04-30T09:35:33.248Z,88.57
2018-04-30T09:36:33.114Z,86.66
2018-04-30T09:37:33.159Z,87.09
2018-04-30T09:38:33.072Z,85.85
2018-04-30T09:39:33.068Z,86.47
2018-04-30T09:40:33.027Z,87.81
2018-04-30T09:41:33.082Z,86.37
2018-04-30T09:42:32.981Z,86.94
2018-04-30T09:43:33.007Z,87.23
2018-04-30T09:44:32.936Z,87.71
2018-04-30T09:45:32.922Z,87.43
2018-04-30T09:46:32.888Z,86.94
2018-04-30T09:47:32.917Z,85.71
2018-04-30T09:48:32.846Z,85.51
2018-04-30T09:49:32.927Z,84.84
2018-04-30T09:50:32.803Z,84.94
2018-04-30T09:51:32.838Z,85.13
2018-04-30T09:52:32.758Z,84.46
2018-04-30T09:53:32.748Z,84.94
2018-04-30T09:54:32.725Z,86.08
2018-04-30T09:55:32.760Z,85.22
2018-04-30T09:56:32.665Z,85.89
2018-04-30T09:57:32.669Z,86.66
2018-04-30T09:58:32.623Z,85.89
2018-04-30T09:59:32.683Z,85.41
2018-04-30T10:00:32.573Z,85.84
2018-04-30T10:01:32.597Z,84.41
2018-04-30T10:02:32.535Z,85.08
2018-04-30T10:03:32.606Z,83.26
2018-04-30T10:04:32.488Z,83.93
2018-04-30T10:05:32.516Z,84.26
2018-04-30T10:06:32.442Z,83.59
2018-04-30T10:07:32.531Z,83.11
2018-04-30T10:08:32.399Z,81.48
2018-04-30T10:09:32.438Z,82.76
2018-04-30T10:10:32.357Z,82.48
2018-04-30T10:11:32.340Z,81.62
2018-04-30T10:12:32.308Z,79.60
2018-04-30T10:13:32.362Z,77.50
2018-04-30T10:14:32.269Z,77.97
2018-04-30T10:15:32.264Z,77.69
2018-04-30T10:16:32.223Z,78.74
2018-04-30T10:17:32.281Z,80.37
2018-04-30T10:18:32.181Z,81.13
2018-04-30T10:19:32.192Z,81.62
2018-04-30T10:20:32.136Z,80.66
2018-04-30T10:21:32.204Z,80.37
2018-04-30T10:22:32.094Z,80.37
2018-04-30T10:23:32.204Z,80.85
2018-04-30T10:24:32.052Z,79.80
2018-04-30T10:25:32.129Z,80.37
2018-04-30T10:26:32.010Z,79.47
2018-04-30T10:27:32.038Z,80.24
2018-04-30T10:28:31.987Z,79.75
2018-04-30T10:29:32.047Z,79.85
2018-04-30T10:30:31.922Z,79.85
2018-04-30T10:31:32.007Z,80.14
2018-04-30T10:32:31.882Z,78.95
2018-04-30T10:33:31.864Z,79.52
2018-04-30T10:34:31.839Z,80.87
2018-04-30T10:35:31.881Z,80.67
2018-04-30T10:36:31.791Z,81.15
2018-04-30T10:37:31.792Z,80.67
2018-04-30T10:38:31.749Z,80.96
2018-04-30T10:39:31.804Z,79.81
2018-04-30T10:40:31.706Z,80.77
2018-04-30T10:41:31.715Z,81.34
2018-04-30T10:42:31.660Z,80.48
2018-04-30T10:43:31.731Z,80.77
2018-04-30T10:44:31.617Z,81.15
2018-04-30T10:45:31.639Z,80.48
2018-04-30T10:46:31.575Z,80.77
2018-04-30T10:47:31.652Z,81.54
2018-04-30T10:48:31.536Z,81.25
2018-04-30T10:49:31.565Z,81.34
2018-04-30T10:50:31.487Z,81.54
2018-04-30T10:51:31.600Z,82.30
2018-04-30T10:52:31.445Z,80.67
2018-04-30T10:53:31.487Z,81.73
2018-04-30T10:54:31.403Z,81.63
2018-04-30T10:55:31.397Z,80.67
2018-04-30T10:56:31.354Z,81.05
2018-04-30T10:57:31.408Z,79.91
2018-04-30T10:58:31.314Z,81.25
2018-04-30T10:59:31.321Z,82.30
2018-04-30T11:00:31.266Z,81.82
2018-04-30T11:01:31.327Z,81.00
2018-04-30T11:02:31.245Z,80.04
2018-04-30T11:03:31.238Z,79.47
2018-04-30T11:04:31.181Z,79.75
2018-04-30T11:05:31.255Z,79.66
2018-04-30T11:06:31.139Z,78.42
2018-04-30T11:07:31.160Z,79.37
2018-04-30T11:08:31.093Z,77.88
2018-04-30T11:09:31.172Z,78.64
2018-04-30T11:10:31.052Z,76.98
2018-04-30T11:11:31.083Z,76.50
2018-04-30T11:12:31.034Z,76.69
2018-04-30T11:13:31.095Z,76.35
2018-04-30T11:14:30.963Z,75.35
2018-04-30T11:15:31.011Z,74.11
2018-04-30T11:16:30.917Z,75.45
2018-04-30T11:17:30.915Z,74.97
2018-04-30T11:18:30.876Z,75.73
2018-04-30T11:19:30.932Z,75.35
2018-04-30T11:20:30.832Z,75.45
2018-04-30T11:21:30.839Z,76.31
2018-04-30T11:22:30.791Z,76.98
2018-04-30T11:23:30.850Z,76.54
2018-04-30T11:24:30.744Z,77.02
2018-04-30T11:25:30.762Z,76.25
2018-04-30T11:26:30.701Z,73.47
2018-04-30T11:27:30.807Z,73.47
2018-04-30T11:28:30.659Z,75.96
2018-04-30T11:29:30.685Z,74.57
2018-04-30T11:30:30.618Z,74.66
2018-04-30T11:31:30.697Z,74.85
2018-04-30T11:32:30.575Z,75.33
2018-04-30T11:33:30.605Z,72.84
2018-04-30T11:34:30.530Z,72.45
2018-04-30T11:35:30.620Z,72.23
2018-04-30T11:36:30.490Z,73.28
2018-04-30T11:37:30.533Z,72.90
2018-04-30T11:38:30.453Z,74.15
2018-04-30T11:39:30.440Z,74.72
2018-04-30T11:40:30.403Z,74.33
2018-04-30T11:41:30.453Z,73.28
2018-04-30T11:42:30.358Z,73.09
2018-04-30T11:43:30.364Z,73.09
2018-04-30T11:44:30.322Z,73.19
2018-04-30T11:45:30.375Z,73.80
2018-04-30T11:46:30.275Z,73.83
2018-04-30T11:47:30.286Z,72.68
2018-04-30T11:48:30.233Z,71.47
2018-04-30T11:49:30.299Z,70.80
2018-04-30T11:50:30.190Z,70.23
2018-04-30T11:51:30.210Z,71.47
2018-04-30T11:52:30.149Z,69.74
2018-04-30T11:53:30.222Z,69.56
2018-04-30T11:54:30.106Z,68.98
2018-04-30T11:55:30.134Z,68.69
2018-04-30T11:56:30.066Z,69.65
2018-04-30T11:57:30.146Z,71.37
2018-04-30T11:58:30.025Z,69.65
2018-04-30T11:59:30.052Z,68.85
2018-04-30T12:00:29.983Z,69.23
2018-04-30T12:01:30.067Z,70.29
2018-04-30T12:02:29.958Z,71.34
2018-04-30T12:03:29.978Z,71.15
2018-04-30T12:04:29.898Z,71.50
2018-04-30T12:05:30.912Z,72.45
2018-04-30T12:06:29.861Z,72.17
2018-04-30T12:07:29.903Z,71.82
2018-04-30T12:08:29.818Z,70.19
2018-04-30T12:09:29.811Z,71.05
2018-04-30T12:10:29.775Z,70.51
2018-04-30T12:11:29.821Z,69.56
2018-04-30T12:12:29.734Z,68.69
2018-04-30T12:13:29.734Z,69.84
2018-04-30T12:14:29.692Z,68.88
2018-04-30T12:15:29.745Z,68.91
2018-04-30T12:16:29.734Z,68.15
2018-04-30T12:17:29.653Z,67.57
2018-04-30T12:18:29.610Z,66.90
2018-04-30T12:19:29.666Z,67.09
2018-04-30T12:20:29.570Z,69.59
2018-04-30T12:21:29.576Z,68.95
2018-04-30T12:22:29.529Z,67.67
2018-04-30T12:23:29.587Z,65.97
2018-04-30T12:24:29.489Z,67.13
2018-04-30T12:25:29.498Z,65.84
2018-04-30T12:26:29.450Z,66.90
2018-04-30T12:27:29.515Z,67.09
2018-04-30T12:28:29.410Z,67.67
2018-04-30T12:29:29.419Z,67.29
2018-04-30T12:30:29.366Z,66.29
2018-04-30T12:31:29.433Z,68.02
2018-04-30T12:32:29.327Z,69.07
2018-04-30T12:33:29.415Z,69.36
2018-04-30T12:34:29.288Z,68.63
2018-04-30T12:35:29.355Z,70.36
2018-04-30T12:36:29.245Z,69.30
2018-04-30T12:37:29.266Z,68.59
2018-04-30T12:38:29.204Z,70.13
2018-04-30T12:39:29.279Z,69.42
2018-04-30T12:40:29.166Z,70.86
2018-04-30T12:41:29.189Z,71.34
2018-04-30T12:42:29.129Z,72.39
2018-04-30T12:43:29.198Z,73.20
2018-04-30T12:44:29.083Z,72.81
2018-04-30T12:45:29.110Z,72.05
2018-04-30T12:46:29.049Z,72.33
2018-04-30T12:47:29.123Z,72.05
2018-04-30T12:48:29.004Z,72.63
2018-04-30T12:49:29.128Z,71.57
2018-04-30T12:50:28.962Z,70.70
2018-04-30T12:51:29.045Z,70.67
2018-04-30T12:52:28.922Z,72.01